createdAt,value
2018-07-09T01:14:53.698Z,1.30
2018-07-09T02:41:56.750Z,1.80
2018-07-09T04:08:32.979Z,1.80
2018-07-09T04:25:25.081Z,1.27
2018-07-09T04:27:55.480Z,1.07
2018-07-09T04:30:25.969Z,1.23
2018-07-09T04:50:22.021Z,1.40
2018-07-09T05:11:10.862Z,1.00
2018-07-09T05:51:59.620Z,0.97
2018-07-09T05:57:13.347Z,1.10
2018-07-09T05:59:43.573Z,0.90
2018-07-09T06:03:17.450Z,0.90
2018-07-09T06:05:49.813Z,1.00
2018-07-09T06:08:18.309Z,0.90
2018-07-09T06:10:47.136Z,1.00
2018-07-09T06:13:15.250Z,1.00
2018-07-09T06:15:43.791Z,0.90
2018-07-09T06:18:12.461Z,1.07
2018-07-09T06:20:41.109Z,1.07
2018-07-09T06:23:09.367Z,0.93
2018-07-09T06:25:37.710Z,0.90
2018-07-09T06:28:05.902Z,0.73
2018-07-09T06:30:34.285Z,1.10
2018-07-09T06:33:02.680Z,0.73
2018-07-09T06:35:31.140Z,1.10
2018-07-09T06:37:59.377Z,1.17
2018-07-09T06:40:27.655Z,0.90
2018-07-09T06:42:57.249Z,0.70
2018-07-09T06:45:29.688Z,0.57
2018-07-09T06:48:01.961Z,0.90
2018-07-09T06:50:31.469Z,0.73
2018-07-09T06:53:15.203Z,0.80
2018-07-09T06:55:56.095Z,1.27
2018-07-09T06:58:24.475Z,1.10
2018-07-09T07:00:52.644Z,0.60
2018-07-09T07:03:21.057Z,1.03
2018-07-09T07:05:49.459Z,0.83
2018-07-09T07:08:18.500Z,1.00
2018-07-09T07:25:09.200Z,0.87
2018-07-09T07:27:38.449Z,0.90
2018-07-09T07:42:31.717Z,0.70
2018-07-09T08:03:25.581Z,0.87
2018-07-09T08:05:55.705Z,0.80
2018-07-09T08:08:23.867Z,0.70
2018-07-09T08:10:52.047Z,1.13
2018-07-09T08:13:28.502Z,0.97
2018-07-09T08:15:48.441Z,0.77
2018-07-09T08:18:16.679Z,0.67
2018-07-09T08:20:44.792Z,0.63
2018-07-09T08:23:12.936Z,0.70
2018-07-09T08:25:41.256Z,0.60
2018-07-09T08:28:09.343Z,0.70
2018-07-09T08:30:37.474Z,0.70
2018-07-09T08:33:05.673Z,0.63
2018-07-09T08:35:33.789Z,0.70
2018-07-09T08:38:01.949Z,0.80
2018-07-09T08:40:30.689Z,0.60
2018-07-09T08:42:58.845Z,0.80
2018-07-09T08:45:26.993Z,0.70
2018-07-09T08:47:56.390Z,0.80
2018-07-09T08:50:25.191Z,0.70
2018-07-09T08:52:55.831Z,1.13
2018-07-09T08:55:32.225Z,0.50
2018-07-09T08:58:08.666Z,1.00
2018-07-09T09:00:40.387Z,0.77
2018-07-09T09:03:09.831Z,0.90
2018-07-09T09:05:38.881Z,0.67
2018-07-09T09:08:07.034Z,0.77
2018-07-09T09:10:36.314Z,0.70
2018-07-09T09:13:04.631Z,0.80
2018-07-09T09:15:33.897Z,0.90
2018-07-09T09:34:01.042Z,0.97
2018-07-09T09:36:30.301Z,1.07
2018-07-09T09:39:00.336Z,1.00
2018-07-09T09:41:41.235Z,1.20
2018-07-09T09:44:19.738Z,1.10
2018-07-09T09:46:47.942Z,0.83
2018-07-09T09:49:16.322Z,1.30
2018-07-09T09:51:44.562Z,1.10
2018-07-09T09:54:12.989Z,1.40
2018-07-09T09:56:41.204Z,1.20
2018-07-09T09:59:22.308Z,1.27
2018-07-09T10:01:50.930Z,1.27
2018-07-09T10:04:20.481Z,1.30
2018-07-09T10:06:49.844Z,1.23
2018-07-09T10:09:18.223Z,1.27
2018-07-09T10:14:49.917Z,1.10
2018-07-09T10:17:23.388Z,1.23
2018-07-09T10:19:51.881Z,1.23
2018-07-09T10:22:20.036Z,1.10
2018-07-09T10:24:48.160Z,1.20
2018-07-09T10:27:18.175Z,1.00
2018-07-09T10:32:39.338Z,1.20
2018-07-09T10:35:07.508Z,1.10
2018-07-09T10:37:35.685Z,0.80
2018-07-09T10:40:04.344Z,1.00
2018-07-09T10:42:32.494Z,1.10
2018-07-09T10:45:00.787Z,0.90
2018-07-09T10:47:28.991Z,1.20
2018-07-09T10:49:57.388Z,2.20
2018-07-09T11:01:01.220Z,1.30
2018-07-09T11:03:29.612Z,1.20
2018-07-09T11:05:57.741Z,1.23
2018-07-09T11:08:25.945Z,1.30
2018-07-09T11:10:54.068Z,1.30
2018-07-09T11:13:22.201Z,1.30
2018-07-09T11:15:50.444Z,1.17
2018-07-09T11:18:18.630Z,1.00
2018-07-09T11:20:46.776Z,1.10
2018-07-09T11:23:17.299Z,1.83
2018-07-09T11:25:46.431Z,1.63
2018-07-09T11:28:36.617Z,1.20
2018-07-09T11:31:20.157Z,1.27
2018-07-09T11:33:48.475Z,1.50
2018-07-09T11:36:16.735Z,1.50
2018-07-09T11:38:45.016Z,1.20
2018-07-09T11:41:13.327Z,1.30
2018-07-09T11:43:42.463Z,1.40
2018-07-09T11:46:10.588Z,1.20
2018-07-09T11:48:38.839Z,1.20
2018-07-09T11:51:07.454Z,1.40
2018-07-09T11:53:35.569Z,1.03
2018-07-09T11:56:06.025Z,1.27
2018-07-09T11:58:35.822Z,1.30
2018-07-09T12:01:09.545Z,1.50
2018-07-09T12:09:28.215Z,1.63
2018-07-09T12:12:00.184Z,1.10
2018-07-09T12:14:37.161Z,1.37
2018-07-09T12:20:00.737Z,1.20
2018-07-09T12:25:42.737Z,1.30
2018-07-09T12:37:23.822Z,1.10
2018-07-09T12:39:53.432Z,1.00
2018-07-09T12:45:15.128Z,1.20
2018-07-09T12:47:47.750Z,1.00
2018-07-09T12:50:17.157Z,1.00
2018-07-09T12:52:49.430Z,1.03
2018-07-09T13:03:10.388Z,1.30
2018-07-09T13:08:53.816Z,1.30
2018-07-09T13:11:29.160Z,1.10
2018-07-09T13:13:59.691Z,1.30
2018-07-09T13:16:29.419Z,1.50
2018-07-09T13:18:59.940Z,1.27
2018-07-09T13:21:33.029Z,1.37
2018-07-09T13:24:06.018Z,1.10
2018-07-09T13:26:36.038Z,1.10
2018-07-09T13:29:17.214Z,1.10
2018-07-09T13:35:01.874Z,1.30
2018-07-09T13:37:35.883Z,1.20
2018-07-09T13:40:09.590Z,0.93
2018-07-09T13:42:41.858Z,1.43
2018-07-09T13:48:04.620Z,1.10
2018-07-09T15:13:39.505Z,1.20
2018-07-09T15:16:12.674Z,1.10
2018-07-09T15:18:51.423Z,1.10
2018-07-09T15:21:21.951Z,1.20
2018-07-09T15:24:06.498Z,1.33
2018-07-09T15:26:36.063Z,1.13
2018-07-09T16:02:52.432Z,1.07
2018-07-09T16:05:25.115Z,1.27
2018-07-09T16:07:55.748Z,1.10
2018-07-09T16:10:32.591Z,1.17
2018-07-09T16:13:13.391Z,1.10
2018-07-09T16:22:00.320Z,1.10
2018-07-09T16:24:29.912Z,1.10
2018-07-09T16:27:04.748Z,0.97
2018-07-09T16:29:50.015Z,1.10
2018-07-09T16:32:23.823Z,1.10
2018-07-09T16:49:27.261Z,1.00
2018-07-09T17:04:03.850Z,0.90
2018-07-09T17:12:42.046Z,0.90
2018-07-09T17:15:17.917Z,1.00
2018-07-09T17:29:26.073Z,1.03
2018-07-09T17:35:02.837Z,0.90
2018-07-09T17:49:13.920Z,1.00
2018-07-09T17:51:49.385Z,1.10
2018-07-09T19:33:56.872Z,2.77
2018-07-09T19:36:24.903Z,3.03
2018-07-09T19:38:52.377Z,2.70
2018-07-09T19:41:19.900Z,2.23
2018-07-09T19:43:47.501Z,2.80
2018-07-09T19:46:15.037Z,2.17
2018-07-09T19:48:42.573Z,2.67
2018-07-09T19:51:10.202Z,2.60
2018-07-09T19:53:37.734Z,2.27
2018-07-09T19:56:05.297Z,2.40
2018-07-09T19:58:32.893Z,2.30
2018-07-09T20:01:00.435Z,2.40
2018-07-09T20:03:28.039Z,2.13
2018-07-09T20:05:55.762Z,2.17
2018-07-09T20:08:27.618Z,2.70
2018-07-09T20:11:03.062Z,2.50
2018-07-09T20:16:37.895Z,2.07
2018-07-09T20:19:13.035Z,2.60
2018-07-09T20:30:25.164Z,1.97
2018-07-09T20:32:54.771Z,2.20
2018-07-09T20:38:28.176Z,2.00
2018-07-09T20:51:20.893Z,2.57
2018-07-09T20:53:50.606Z,2.20
2018-07-09T20:56:22.320Z,1.63
2018-07-09T21:30:14.707Z,2.10
2018-07-09T21:42:22.706Z,1.90
2018-07-09T21:47:59.212Z,2.20
2018-07-09T21:50:21.523Z,1.93
2018-07-09T21:53:12.547Z,1.93
2018-07-09T22:06:18.240Z,2.50
2018-07-09T22:17:55.231Z,2.47
2018-07-09T22:26:36.726Z,2.43
2018-07-09T22:37:55.702Z,3.00
2018-07-09T22:40:28.385Z,2.10
2018-07-09T23:05:11.502Z,2.57
2018-07-09T23:28:53.936Z,2.60
2018-07-09T23:31:27.639Z,2.40
2018-07-09T23:43:17.731Z,2.17
2018-07-09T23:50:55.812Z,2.10
